Time;durP1;ratioP1;P1;durP2;ratioP2;P2;SDS_P1;SDS_P2;PMS_P1;PMS_P2;Temp;Humidity;BMP_temperature;BMP_pressure;BME280_temperature;BME280_humidity;BME280_pressure;Samples;Min_cycle;Max_cycle;Signal;HPM_P1;HPM_P2
2022/04/04 00:00:10;;;;;;;;;25.25;23.75;;;;;9.69;42.44;101883.28;4982307;28;45559;-67
2022/04/04 00:02:35;;;;;;;;;20.50;19.75;;;;;9.66;42.54;101878.00;4981295;28;45325;-67
2022/04/04 00:05:01;;;;;;;;;11.50;11.50;;;;;9.71;42.78;101889.47;4981641;28;45380;-67
2022/04/04 00:07:27;;;;;;;;;15.50;13.75;;;;;9.73;42.58;101895.69;4981843;28;45389;-67
2022/04/04 00:09:52;;;;;;;;;11.25;10.00;;;;;9.73;42.44;101895.69;4981937;28;45628;-67
2022/04/04 00:12:18;;;;;;;;;11.75;11.75;;;;;9.70;43.05;101890.38;4981892;28;45680;-67
2022/04/04 00:14:43;;;;;;;;;11.00;11.00;;;;;9.73;42.69;101900.13;4980410;28;47267;-67
2022/04/04 00:17:09;;;;;;;;;10.75;10.75;;;;;9.69;42.80;101887.72;4981644;28;45437;-67
2022/04/04 00:19:34;;;;;;;;;15.75;14.00;;;;;9.70;43.04;101889.50;4981797;28;45184;-67
2022/04/04 00:22:00;;;;;;;;;13.75;13.25;;;;;9.71;43.25;101897.47;4981784;28;45287;-67
2022/04/04 00:24:25;;;;;;;;;12.75;12.75;;;;;9.71;43.00;101900.16;4996503;28;47056;-67
2022/04/04 00:26:51;;;;;;;;;10.25;10.25;;;;;9.66;43.16;101883.31;4981741;28;45369;-67
2022/04/04 00:29:16;;;;;;;;;16.00;12.50;;;;;9.69;43.39;101887.72;4981788;28;45504;-67
2022/04/04 00:31:42;;;;;;;;;13.75;13.75;;;;;9.58;43.48;101879.84;4963515;28;45250;-67
2022/04/04 00:34:07;;;;;;;;;17.00;13.75;;;;;9.58;43.40;101878.06;4980835;28;46149;-67
2022/04/04 00:36:33;;;;;;;;;13.75;12.50;;;;;9.56;43.04;101869.19;4981641;28;45315;-67
2022/04/04 00:38:58;;;;;;;;;11.75;11.25;;;;;9.56;43.20;101871.00;4981568;28;45317;-67
2022/04/04 00:41:24;;;;;;;;;11.00;11.00;;;;;9.54;43.46;101873.66;4979930;28;45774;-67
2022/04/04 00:43:51;;;;;;;;;17.00;11.00;;;;;9.58;43.47;101874.50;4981119;28;46247;-67
2022/04/04 00:46:17;;;;;;;;;10.50;10.00;;;;;9.56;43.18;101876.31;4981102;28;45603;-66
2022/04/04 00:48:42;;;;;;;;;12.25;9.75;;;;;9.45;43.53;101852.41;4981275;28;45400;-67
2022/04/04 00:51:08;;;;;;;;;11.50;10.00;;;;;9.53;43.46;101877.22;4981111;28;45466;-67
2022/04/04 00:53:33;;;;;;;;;10.75;10.50;;;;;9.54;43.70;101873.66;4981001;28;45488;-67
2022/04/04 00:55:59;;;;;;;;;11.25;10.00;;;;;9.52;43.49;101867.47;4980912;28;45195;-67
2022/04/04 00:58:29;;;;;;;;;9.75;8.75;;;;;9.48;43.64;101863.06;4981211;28;45325;-67
2022/04/04 01:00:55;;;;;;;;;11.00;11.00;;;;;9.48;43.70;101872.84;4996206;28;45429;-67
2022/04/04 01:03:20;;;;;;;;;14.00;10.25;;;;;9.46;43.70;101881.72;4963240;28;45414;-67
2022/04/04 01:05:46;;;;;;;;;10.00;9.00;;;;;9.48;43.78;101870.19;4981263;28;45354;-67
2022/04/04 01:08:13;;;;;;;;;9.25;9.25;;;;;9.45;43.64;101869.31;4981053;28;45427;-67
2022/04/04 01:10:40;;;;;;;;;10.00;10.00;;;;;9.40;43.44;101859.56;4963579;28;45385;-67
2022/04/04 01:13:05;;;;;;;;;10.50;8.75;;;;;9.43;43.76;101867.56;4980996;28;46001;-67
2022/04/04 01:15:32;;;;;;;;;14.50;11.25;;;;;9.43;43.28;101865.75;4963486;28;45265;-67
2022/04/04 01:17:58;;;;;;;;;11.75;11.00;;;;;9.37;43.48;101863.16;4980314;28;45298;-67
2022/04/04 01:20:24;;;;;;;;;13.00;11.25;;;;;9.39;43.74;101865.81;4963717;28;45954;-67
2022/04/04 01:22:50;;;;;;;;;9.75;9.75;;;;;9.38;43.75;101870.25;4962324;28;47431;-67
2022/04/04 01:25:22;;;;;;;;;10.50;10.50;;;;;9.36;43.43;101864.06;4963236;28;45369;-67
2022/04/04 01:27:48;;;;;;;;;10.00;10.00;;;;;9.29;43.64;101854.38;4980945;28;45285;-67
2022/04/04 01:30:13;;;;;;;;;10.25;8.50;;;;;9.34;43.63;101862.28;4963132;28;45525;-67
2022/04/04 01:32:39;;;;;;;;;8.00;7.50;;;;;9.34;43.35;101855.19;4980821;28;46131;-67
2022/04/04 01:35:05;;;;;;;;;9.25;9.25;;;;;9.23;43.19;101841.97;4980772;28;45404;-67
2022/04/04 01:37:31;;;;;;;;;10.00;10.00;;;;;9.25;43.53;101848.19;4980250;28;45458;-67
2022/04/04 01:39:58;;;;;;;;;9.50;9.00;;;;;9.32;43.35;101856.09;4980485;28;45569;-67
2022/04/04 01:42:23;;;;;;;;;14.00;10.00;;;;;9.26;43.35;101851.72;4980358;28;47027;-67
2022/04/04 01:44:49;;;;;;;;;10.75;8.25;;;;;9.21;43.18;101841.09;4980470;28;45298;-67
2022/04/04 01:47:14;;;;;;;;;9.00;9.00;;;;;9.21;43.01;101838.44;4980458;28;45911;-67
2022/04/04 01:49:40;;;;;;;;;6.00;6.00;;;;;9.21;43.30;101843.75;4962930;28;45248;-67
2022/04/04 01:52:05;;;;;;;;;9.50;9.50;;;;;9.23;43.34;101841.97;4980035;28;45602;-67
2022/04/04 01:54:31;;;;;;;;;7.00;6.75;;;;;9.22;43.27;101839.31;4980292;28;45274;-67
2022/04/04 01:56:56;;;;;;;;;11.75;9.00;;;;;9.23;43.39;101843.75;4962808;28;45516;-67
2022/04/04 01:59:22;;;;;;;;;9.00;8.00;;;;;9.21;43.46;101840.22;4995558;28;45826;-67
2022/04/04 02:01:47;;;;;;;;;9.25;9.25;;;;;9.19;43.15;101834.03;4980027;28;46057;-67
2022/04/04 02:04:13;;;;;;;;;8.00;8.00;;;;;9.21;43.28;101837.56;4962900;28;46083;-67
2022/04/04 02:06:39;;;;;;;;;8.00;8.00;;;;;9.18;43.23;101833.13;4980212;28;45396;-67
2022/04/04 02:09:05;;;;;;;;;8.00;8.00;;;;;9.16;43.46;101829.59;4979019;28;45455;-67
2022/04/04 02:11:31;;;;;;;;;9.25;8.00;;;;;9.17;43.08;101831.38;4980248;28;45342;-67
2022/04/04 02:13:58;;;;;;;;;7.00;4.50;;;;;9.14;43.27;101825.19;4980414;28;45393;-67
2022/04/04 02:16:24;;;;;;;;;9.75;7.75;;;;;8.97;43.41;101799.59;4962313;28;45343;-67
2022/04/04 02:18:49;;;;;;;;;7.50;7.00;;;;;9.17;43.35;101825.16;4962686;28;45281;-67
2022/04/04 02:21:15;;;;;;;;;3.75;3.75;;;;;9.12;43.13;101816.31;4979327;28;46159;-67
2022/04/04 02:23:41;;;;;;;;;7.25;5.00;;;;;9.08;43.17;101804.81;4979845;28;45317;-67
2022/04/04 02:26:06;;;;;;;;;7.25;7.25;;;;;9.11;43.41;101807.47;4979826;28;45297;-67
2022/04/04 02:28:32;;;;;;;;;8.75;7.75;;;;;9.03;43.19;101804.84;4980989;28;45397;-67
2022/04/04 02:30:58;;;;;;;;;7.25;6.25;;;;;9.13;43.14;101810.97;4983302;28;46019;-67
2022/04/04 02:33:24;;;;;;;;;6.75;6.75;;;;;9.09;43.19;101803.94;4965452;28;45351;-67
2022/04/04 02:35:50;;;;;;;;;3.75;3.25;;;;;9.05;43.08;101802.19;4983483;28;45606;-67
2022/04/04 02:38:17;;;;;;;;;7.00;6.00;;;;;9.11;43.41;101810.13;4982132;28;45327;-67
2022/04/04 02:40:42;;;;;;;;;8.25;7.25;;;;;9.08;43.39;101808.34;4983096;28;45597;-67
2022/04/04 02:43:08;;;;;;;;;7.00;5.00;;;;;9.06;43.19;101803.97;4983138;28;45409;-67
2022/04/04 02:45:34;;;;;;;;;8.00;7.25;;;;;9.05;43.02;101800.41;4983179;28;45306;-67
2022/04/04 02:48:00;;;;;;;;;7.25;4.75;;;;;9.04;43.83;101811.09;4983134;28;45515;-67
2022/04/04 02:50:26;;;;;;;;;6.00;5.25;;;;;9.03;43.32;101804.84;4982935;28;45219;-67
2022/04/04 02:52:52;;;;;;;;;7.25;7.00;;;;;8.94;43.20;101793.38;4964510;28;45311;-67
2022/04/04 02:58:02;;;;;;;;;4.50;4.50;;;;;9.00;43.35;101804.00;4983237;28;45425;-67
2022/04/04 03:00:27;;;;;;;;;6.75;6.75;;;;;8.94;43.65;101796.97;4965153;28;48009;-67
2022/04/04 03:02:54;;;;;;;;;7.75;6.75;;;;;8.96;43.25;101808.47;4983009;28;45691;-67
2022/04/04 03:05:20;;;;;;;;;5.25;5.25;;;;;8.94;43.68;101804.03;4983027;28;45465;-67
2022/04/04 03:07:45;;;;;;;;;8.25;8.25;;;;;8.88;43.56;101792.56;4982944;28;45434;-67
2022/04/04 03:10:12;;;;;;;;;8.00;7.00;;;;;8.94;43.65;101801.38;4965102;28;47180;-67
2022/04/04 03:12:46;;;;;;;;;6.00;6.00;;;;;8.88;43.83;101789.88;4983023;28;45432;-67
2022/04/04 03:15:15;;;;;;;;;15.00;9.25;;;;;8.90;43.62;101790.78;4982847;28;45373;-67
2022/04/04 03:17:42;;;;;;;;;10.50;8.25;;;;;8.89;43.71;101790.78;4982511;28;45274;-67
2022/04/04 03:20:10;;;;;;;;;9.00;7.50;;;;;8.83;43.58;101782.84;4982659;28;45308;-67
2022/04/04 03:22:39;;;;;;;;;12.00;7.50;;;;;8.86;43.83;101789.03;4982094;28;45825;-67
2022/04/04 03:25:05;;;;;;;;;9.00;6.75;;;;;8.85;43.75;101787.28;4965027;28;45405;-67
2022/04/04 03:27:30;;;;;;;;;3.25;3.00;;;;;8.72;43.98;101764.31;4981526;28;45528;-67
2022/04/04 03:29:56;;;;;;;;;9.75;8.00;;;;;8.78;43.91;101785.53;4964794;28;47216;-67
2022/04/04 03:32:21;;;;;;;;;8.00;8.00;;;;;8.69;43.78;101773.19;4982018;28;45492;-67
2022/04/04 03:34:47;;;;;;;;;7.75;7.75;;;;;8.73;44.11;101776.72;4982480;28;45365;-67
2022/04/04 03:37:12;;;;;;;;;7.50;7.00;;;;;8.69;44.30;101769.66;4982079;28;45209;-67
2022/04/04 03:39:38;;;;;;;;;9.00;7.00;;;;;8.70;43.76;101774.06;4964151;28;48448;-67
2022/04/04 03:42:03;;;;;;;;;8.75;7.75;;;;;8.68;44.35;101771.41;4981935;28;45372;-67
2022/04/04 03:44:29;;;;;;;;;9.25;8.50;;;;;8.63;44.43;101759.06;4997706;28;45366;-67
2022/04/04 03:46:54;;;;;;;;;8.50;8.50;;;;;8.63;44.21;101757.25;4982085;28;45269;-67
2022/04/04 03:49:20;;;;;;;;;10.25;8.25;;;;;8.66;44.24;101769.69;4982307;28;45413;-67
2022/04/04 03:51:45;;;;;;;;;8.75;8.25;;;;;8.60;44.22;101754.63;4982138;28;45322;-67
2022/04/04 03:54:12;;;;;;;;;8.50;8.50;;;;;8.63;43.99;101762.59;4982299;28;45378;-67
2022/04/04 03:56:38;;;;;;;;;12.00;10.25;;;;;8.61;44.34;101760.84;4981936;28;45590;-67
2022/04/04 03:59:03;;;;;;;;;10.75;9.00;;;;;8.47;44.18;101735.22;4981832;28;45335;-67
2022/04/04 04:01:30;;;;;;;;;12.00;9.00;;;;;8.47;43.93;101735.22;4981855;28;45254;-67
2022/04/04 04:03:55;;;;;;;;;13.25;11.75;;;;;8.51;44.34;101742.28;4982179;28;45216;-67
2022/04/04 04:06:20;;;;;;;;;14.00;13.25;;;;;8.47;44.11;101742.31;4981849;28;45283;-67
2022/04/04 04:08:46;;;;;;;;;12.25;12.25;;;;;8.55;44.27;101752.91;4981958;28;45413;-67
2022/04/04 04:11:14;;;;;;;;;11.50;7.50;;;;;8.51;44.53;101754.72;4982023;28;45192;-67
2022/04/04 04:13:41;;;;;;;;;14.75;11.50;;;;;8.50;44.50;101744.94;4982263;28;45444;-67
2022/04/04 04:16:09;;;;;;;;;13.00;13.00;;;;;8.49;44.54;101745.88;4981390;28;45415;-67
2022/04/04 04:18:35;;;;;;;;;14.75;13.75;;;;;8.43;44.45;101738.78;4981682;28;47112;-66
2022/04/04 04:21:00;;;;;;;;;12.00;12.00;;;;;8.48;44.41;101739.63;4981200;28;45316;-66
2022/04/04 04:23:26;;;;;;;;;10.25;10.00;;;;;8.46;44.51;101737.91;4981290;28;45268;-66
2022/04/04 04:25:52;;;;;;;;;11.00;9.75;;;;;8.42;44.48;101729.03;4964009;28;45513;-67
2022/04/04 04:28:18;;;;;;;;;11.50;10.50;;;;;8.45;44.65;101728.13;4981306;28;45604;-67
2022/04/04 04:30:43;;;;;;;;;13.25;12.25;;;;;8.42;43.95;101731.69;4981607;28;45869;-66
2022/04/04 04:33:09;;;;;;;;;10.00;10.00;;;;;8.44;44.35;101731.72;4981292;28;45713;-67
2022/04/04 04:35:35;;;;;;;;;13.00;12.00;;;;;8.38;44.56;101721.06;4964098;28;45830;-67
2022/04/04 04:38:00;;;;;;;;;11.50;10.75;;;;;8.43;44.54;101727.28;4963684;28;47334;-66
2022/04/04 04:40:27;;;;;;;;;19.75;17.50;;;;;8.40;44.72;101730.78;4964041;28;45370;-67
2022/04/04 04:42:53;;;;;;;;;17.75;15.00;;;;;8.37;44.52;101722.88;4981302;28;45437;-66
2022/04/04 04:45:19;;;;;;;;;14.75;13.25;;;;;8.32;44.54;101714.03;4981416;28;45503;-67
2022/04/04 04:47:45;;;;;;;;;12.75;12.00;;;;;8.26;44.94;101701.66;4963502;28;47361;-67
2022/04/04 04:50:14;;;;;;;;;19.00;17.50;;;;;8.30;44.85;101715.81;4963806;28;45847;-67
2022/04/04 04:52:40;;;;;;;;;18.50;17.50;;;;;8.23;45.06;101711.44;4980108;28;45377;-67
2022/04/04 04:55:06;;;;;;;;;13.75;12.75;;;;;8.21;45.02;101707.91;4980957;28;45431;-67
2022/04/04 04:57:32;;;;;;;;;17.25;14.75;;;;;8.21;45.27;101714.09;4981121;28;45477;-67
2022/04/04 04:59:57;;;;;;;;;17.25;16.75;;;;;8.18;44.97;101707.91;4981080;28;45372;-67
2022/04/04 05:02:23;;;;;;;;;19.00;17.75;;;;;8.22;45.44;101718.53;4981162;28;45682;-66
2022/04/04 05:04:48;;;;;;;;;20.50;15.25;;;;;8.15;45.11;101715.03;4981064;28;45241;-67
2022/04/04 05:07:15;;;;;;;;;19.25;17.00;;;;;8.13;44.85;101700.84;4963288;28;48599;-67
2022/04/04 05:09:40;;;;;;;;;19.25;18.25;;;;;8.16;45.21;101711.47;4981224;28;45223;-67
2022/04/04 05:12:06;;;;;;;;;11.25;6.75;;;;;8.15;45.43;101719.44;4981242;28;45330;-67
2022/04/04 05:14:32;;;;;;;;;19.00;17.25;;;;;8.12;45.29;101720.38;4980944;28;45349;-66
2022/04/04 05:16:57;;;;;;;;;16.75;15.00;;;;;8.10;45.62;101716.84;4963134;28;46187;-67
2022/04/04 05:19:23;;;;;;;;;13.25;12.50;;;;;8.08;45.56;101718.59;4981012;28;45333;-67
2022/04/04 05:21:49;;;;;;;;;20.75;19.25;;;;;8.05;45.57;101723.06;4980095;28;45278;-66
2022/04/04 05:24:15;;;;;;;;;20.75;20.00;;;;;8.02;45.41;101720.41;4980637;28;45404;-67
2022/04/04 05:26:41;;;;;;;;;18.25;16.50;;;;;7.90;45.58;101703.69;4980460;28;45254;-67
2022/04/04 05:29:07;;;;;;;;;17.75;14.50;;;;;7.85;45.14;101702.81;4963225;28;46135;-67
2022/04/04 05:31:34;;;;;;;;;21.00;18.00;;;;;7.94;45.52;101718.69;4980302;28;45405;-67
2022/04/04 05:34:01;;;;;;;;;15.75;14.50;;;;;7.92;45.91;101717.84;4980578;28;45312;-67
2022/04/04 05:36:27;;;;;;;;;18.75;17.00;;;;;7.90;45.54;101719.63;4967529;28;47562;-67
2022/04/04 05:38:52;;;;;;;;;20.50;19.75;;;;;7.87;45.32;101713.41;4995512;28;45368;-67
2022/04/04 05:41:18;;;;;;;;;23.50;19.50;;;;;7.89;45.66;101724.94;4963348;28;45382;-67
2022/04/04 05:43:44;;;;;;;;;20.25;20.25;;;;;7.85;45.69;101708.13;4980368;28;45468;-67
2022/04/04 05:46:11;;;;;;;;;23.75;19.75;;;;;7.85;45.75;101704.56;4980376;28;45400;-66
2022/04/04 05:48:37;;;;;;;;;22.75;22.75;;;;;7.89;46.08;101714.31;4980452;28;45305;-66
2022/04/04 05:51:03;;;;;;;;;28.75;21.75;;;;;7.71;46.06;101694.91;4980187;28;45324;-67
2022/04/04 05:53:28;;;;;;;;;18.00;17.00;;;;;7.77;45.87;101705.50;4979766;28;45334;-66
2022/04/04 05:55:54;;;;;;;;;23.25;22.00;;;;;7.66;46.07;101683.41;4979769;28;46306;-67
2022/04/04 05:58:19;;;;;;;;;22.50;20.25;;;;;7.84;46.07;101716.13;4979573;28;45374;-67
2022/04/04 06:00:45;;;;;;;;;19.50;18.50;;;;;7.79;45.97;101708.16;4962677;28;45547;-66
2022/04/04 06:03:10;;;;;;;;;22.00;20.00;;;;;7.78;46.10;101704.63;4979467;28;45348;-67
2022/04/04 06:05:35;;;;;;;;;19.50;16.75;;;;;7.82;46.34;101715.22;4979003;28;45582;-79
2022/04/04 06:08:01;;;;;;;;;18.75;16.75;;;;;7.74;46.15;101704.66;4960953;28;45373;-79
2022/04/04 06:10:27;;;;;;;;;19.25;18.50;;;;;7.79;45.98;101717.00;4977973;28;45473;-79
2022/04/04 06:12:53;;;;;;;;;17.75;17.75;;;;;7.61;45.68;101679.91;4974017;28;45436;-78
2022/04/04 06:15:19;;;;;;;;;19.50;18.25;;;;;7.70;45.90;101698.47;4961285;28;48206;-75
2022/04/04 06:17:44;;;;;;;;;19.75;18.25;;;;;7.73;45.81;101703.75;4956377;28;45524;-75
2022/04/04 06:20:10;;;;;;;;;19.50;17.50;;;;;7.72;45.90;101696.69;4960923;28;45485;-67
2022/04/04 06:22:37;;;;;;;;;24.25;19.75;;;;;7.76;45.88;101703.72;4979521;28;45460;-67
2022/04/04 06:25:05;;;;;;;;;17.75;15.75;;;;;7.69;46.04;101696.69;4978177;28;46204;-66
2022/04/04 06:27:30;;;;;;;;;19.50;18.50;;;;;7.62;46.15;101681.69;4979582;28;45191;-67
2022/04/04 06:29:56;;;;;;;;;22.00;20.50;;;;;7.67;46.26;101694.91;4961416;28;45360;-67
2022/04/04 06:32:24;;;;;;;;;20.75;20.75;;;;;7.70;45.82;101700.22;4973687;28;45531;-67
2022/04/04 06:34:50;;;;;;;;;19.25;18.00;;;;;7.71;45.72;101704.66;4975612;28;45479;-67
2022/04/04 06:37:16;;;;;;;;;27.25;24.00;;;;;7.66;46.26;101704.66;4978280;28;45369;-67
2022/04/04 06:39:41;;;;;;;;;24.50;23.75;;;;;7.64;46.59;101694.97;4994750;28;45392;-67
2022/04/04 06:42:07;;;;;;;;;24.50;22.25;;;;;7.64;46.23;101703.81;4979511;28;45310;-67
2022/04/04 06:44:32;;;;;;;;;25.50;24.25;;;;;7.50;46.40;101676.41;4978970;28;45300;-66
2022/04/04 06:46:57;;;;;;;;;22.00;21.25;;;;;7.54;46.30;101683.47;4977672;28;45505;-67
2022/04/04 06:49:23;;;;;;;;;15.50;15.50;;;;;7.55;45.86;101687.88;4979605;28;45274;-67
2022/04/04 06:51:51;;;;;;;;;16.50;15.25;;;;;7.56;46.07;101693.19;4978041;28;45538;-66
2022/04/04 06:54:18;;;;;;;;;24.25;21.00;;;;;7.59;46.27;101694.97;4976710;28;45430;-66
2022/04/04 06:56:49;;;;;;;;;18.50;18.50;;;;;7.56;46.54;101687.88;4977806;28;45905;-67
2022/04/04 06:59:16;;;;;;;;;27.25;21.25;;;;;7.65;46.02;101692.28;4973562;28;45780;-67
2022/04/04 07:01:43;;;;;;;;;22.50;22.00;;;;;7.57;45.92;101676.38;4977191;28;45436;-66
2022/04/04 07:04:11;;;;;;;;;19.25;18.25;;;;;7.67;46.42;101690.50;4979050;28;45460;-67
2022/04/04 07:06:37;;;;;;;;;6.25;5.25;;;;;7.63;45.82;101696.72;4976604;28;45479;-67
2022/04/04 07:09:03;;;;;;;;;19.75;19.00;;;;;7.66;46.46;101688.72;4976730;28;45379;-66
2022/04/04 07:11:29;;;;;;;;;24.75;23.25;;;;;7.61;45.96;101677.25;4959472;28;45819;-66
2022/04/04 07:13:55;;;;;;;;;19.50;18.25;;;;;7.64;45.54;101677.22;4959715;28;47359;-67
2022/04/04 07:16:21;;;;;;;;;19.25;17.75;;;;;7.60;45.53;101656.84;4991870;28;45432;-66
2022/04/04 07:18:48;;;;;;;;;24.25;21.25;;;;;7.71;46.08;101670.09;4961210;28;45635;-67
2022/04/04 07:21:13;;;;;;;;;16.00;12.75;;;;;7.68;46.08;101668.34;4959215;28;45843;-67
2022/04/04 07:23:38;;;;;;;;;21.75;17.00;;;;;7.76;46.00;101674.50;4978511;28;47809;-67
2022/04/04 07:26:04;;;;;;;;;12.00;12.00;;;;;7.79;45.62;101669.16;4980960;28;45312;-67
2022/04/04 07:28:29;;;;;;;;;6.00;5.50;;;;;7.85;44.38;101660.28;4981518;28;45378;-67
2022/04/04 07:30:55;;;;;;;;;6.00;6.00;;;;;7.82;44.38;101647.00;4981762;28;45428;-67
2022/04/04 07:33:20;;;;;;;;;3.00;3.00;;;;;7.96;43.73;101657.53;4982283;28;46089;-67
2022/04/04 07:35:46;;;;;;;;;6.00;4.00;;;;;7.96;44.02;101638.94;4981166;28;45455;-67
2022/04/04 07:38:12;;;;;;;;;3.75;3.25;;;;;8.09;43.83;101655.69;4975364;28;45487;-67
2022/04/04 07:40:38;;;;;;;;;4.25;3.50;;;;;8.12;43.81;101659.19;4961982;28;45524;-67
2022/04/04 07:43:04;;;;;;;;;4.50;3.50;;;;;8.05;43.26;101627.34;4981253;28;46184;-67
2022/04/04 07:45:30;;;;;;;;;7.00;3.75;;;;;8.18;43.29;101650.28;4978902;28;45527;-67
2022/04/04 07:47:57;;;;;;;;;6.00;6.00;;;;;8.25;43.59;101643.13;4979761;28;45258;-67
2022/04/04 07:50:23;;;;;;;;;6.00;6.00;;;;;8.29;43.35;101637.78;4981126;28;45420;-66
2022/04/04 07:52:49;;;;;;;;;7.00;5.00;;;;;8.38;42.97;101638.59;4978726;28;45504;-67
2022/04/04 07:55:15;;;;;;;;;6.75;6.00;;;;;8.45;42.93;101632.34;4962745;28;45489;-67
2022/04/04 07:57:42;;;;;;;;;6.50;6.50;;;;;8.45;42.67;101627.03;4979577;28;45484;-67
2022/04/04 08:00:10;;;;;;;;;4.75;3.00;;;;;8.56;42.70;101626.94;4961100;28;45640;-68
2022/04/04 08:02:37;;;;;;;;;7.00;5.00;;;;;8.61;43.21;101628.66;4979184;28;46992;-66
2022/04/04 08:05:04;;;;;;;;;3.25;3.25;;;;;8.72;42.48;101625.91;4980467;28;45410;-67
2022/04/04 08:07:29;;;;;;;;;3.00;3.00;;;;;8.79;42.24;101624.06;4979109;28;45464;-75
2022/04/04 08:09:55;;;;;;;;;3.75;3.75;;;;;8.81;42.44;101628.44;4960067;28;47077;-68
2022/04/04 08:12:25;;;;;;;;;6.75;5.50;;;;;8.88;42.25;101626.59;4979694;28;46205;-68
2022/04/04 08:14:50;;;;;;;;;7.25;4.00;;;;;8.88;42.06;101618.59;4979845;28;45384;-70
2022/04/04 08:17:15;;;;;;;;;4.00;4.00;;;;;8.78;42.12;101593.84;4978646;28;45485;-70
2022/04/04 08:19:41;;;;;;;;;5.50;5.50;;;;;8.97;42.36;101612.28;4978731;28;45495;-70
2022/04/04 08:22:06;;;;;;;;;6.75;6.75;;;;;9.04;42.50;101627.31;4978521;28;45600;-70
2022/04/04 08:24:32;;;;;;;;;4.00;4.00;;;;;9.08;42.08;101615.72;4979558;28;45356;-70
2022/04/04 08:26:57;;;;;;;;;6.00;4.75;;;;;9.07;41.91;101608.59;4993821;28;45384;-70
2022/04/04 08:29:23;;;;;;;;;4.25;4.25;;;;;9.12;42.02;101609.47;4980320;28;45552;-69
2022/04/04 08:31:49;;;;;;;;;3.25;3.25;;;;;9.15;41.91;101604.06;4977061;28;46128;-70
2022/04/04 08:34:15;;;;;;;;;4.00;4.00;;;;;9.13;41.65;101591.69;4977971;28;45991;-70
2022/04/04 08:36:41;;;;;;;;;5.25;3.50;;;;;9.17;41.86;101578.31;4962837;28;45545;-70
2022/04/04 08:39:07;;;;;;;;;5.25;5.25;;;;;9.26;41.58;101590.63;4976384;28;45703;-69
2022/04/04 08:41:34;;;;;;;;;5.25;4.00;;;;;9.30;41.72;101591.47;4958387;28;46412;-69
2022/04/04 08:44:01;;;;;;;;;4.00;4.00;;;;;9.27;41.30;101576.38;4978659;28;45302;-69
2022/04/04 08:46:27;;;;;;;;;5.25;4.50;;;;;9.36;41.20;101584.25;4980186;28;45484;-69
2022/04/04 08:48:55;;;;;;;;;4.00;4.00;;;;;9.42;40.69;101586.84;4979760;28;45468;-68
2022/04/04 08:51:21;;;;;;;;;3.75;3.75;;;;;9.47;41.20;101586.75;4979869;28;46576;-68
2022/04/04 08:53:47;;;;;;;;;4.75;3.75;;;;;9.52;41.71;101584.03;4979156;28;45483;-67
2022/04/04 08:56:12;;;;;;;;;7.25;5.75;;;;;9.56;41.00;101583.09;4971694;28;45734;-69
2022/04/04 08:58:38;;;;;;;;;4.00;4.00;;;;;9.61;41.19;101582.13;4977912;28;45408;-69
2022/04/04 09:01:04;;;;;;;;;4.00;3.00;;;;;9.64;40.92;101581.22;4977561;28;46243;-68
2022/04/04 09:03:31;;;;;;;;;4.00;4.00;;;;;9.70;40.96;101581.09;4979057;28;45590;-70
2022/04/04 09:05:58;;;;;;;;;3.00;3.00;;;;;9.71;40.90;101572.22;4961423;28;45321;-73
2022/04/04 09:08:24;;;;;;;;;4.00;4.00;;;;;9.78;40.36;101571.19;4977591;28;45254;-74
2022/04/04 09:10:56;;;;;;;;;3.00;3.00;;;;;9.81;40.57;101578.28;4976597;28;45955;-72
2022/04/04 09:13:23;;;;;;;;;2.00;2.00;;;;;9.82;39.96;101569.34;4979252;28;45665;-73
2022/04/04 09:15:54;;;;;;;;;2.75;2.75;;;;;9.84;39.74;101564.91;4961279;28;47083;-72
2022/04/04 09:18:42;;;;;;;;;3.00;3.00;;;;;9.85;38.98;101561.31;4979073;28;45403;-72
2022/04/04 09:21:31;;;;;;;;;1.75;1.75;;;;;9.92;39.19;101565.66;4979151;28;45775;-71
2022/04/04 09:24:01;;;;;;;;;2.00;2.00;;;;;9.87;39.04;101548.81;4968793;28;45410;-71
2022/04/04 09:26:37;;;;;;;;;4.00;2.75;;;;;9.98;39.30;101557.53;4979707;28;45638;-71
2022/04/04 09:29:14;;;;;;;;;1.00;1.00;;;;;10.00;39.69;101550.38;4979234;28;45614;-72
2022/04/04 09:32:05;;;;;;;;;2.00;2.00;;;;;10.07;39.23;101553.81;4978916;28;45650;-72
2022/04/04 09:34:49;;;;;;;;;1.50;1.50;;;;;10.06;39.61;101532.53;4975401;28;45317;-72
2022/04/04 09:37:15;;;;;;;;;5.50;5.50;;;;;10.20;39.22;101549.16;4961622;28;45397;-72
2022/04/04 09:39:41;;;;;;;;;0.00;0.00;;;;;10.24;39.03;101540.22;4961072;28;45500;-72
2022/04/04 09:42:15;;;;;;;;;3.00;3.00;;;;;10.24;38.71;101523.28;4979310;28;46416;-72
2022/04/04 09:44:40;;;;;;;;;3.75;2.00;;;;;10.32;39.08;101532.97;4961951;28;45290;-72
2022/04/04 09:47:05;;;;;;;;;4.00;3.50;;;;;10.37;38.87;101530.19;4978378;28;45317;-72
2022/04/04 09:49:38;;;;;;;;;4.50;4.50;;;;;10.41;38.81;101520.34;4977752;28;45373;-73
2022/04/04 09:52:03;;;;;;;;;3.00;3.00;;;;;10.35;38.43;101503.53;4978435;28;45808;-72
2022/04/04 09:54:29;;;;;;;;;2.00;2.00;;;;;10.49;38.81;101518.41;4977620;28;45416;-72
2022/04/04 09:57:16;;;;;;;;;3.50;2.50;;;;;10.54;37.76;101509.41;4978771;28;45393;-72
2022/04/04 09:59:42;;;;;;;;;3.75;2.00;;;;;10.50;37.91;101490.81;4975153;28;45778;-73
2022/04/04 10:02:12;;;;;;;;;4.50;3.00;;;;;10.56;37.90;101490.69;4977616;28;45673;-73
2022/04/04 10:04:38;;;;;;;;;2.00;2.00;;;;;10.63;38.20;101511.00;4978083;28;45788;-73
2022/04/04 10:07:09;;;;;;;;;2.25;2.25;;;;;10.63;37.79;101495.00;4978950;28;45379;-72
2022/04/04 10:09:35;;;;;;;;;5.25;3.00;;;;;10.65;37.29;101490.50;4978233;28;45474;-73
2022/04/04 10:12:02;;;;;;;;;2.25;2.00;;;;;10.74;37.42;101506.34;4978923;28;45452;-73
2022/04/04 10:14:30;;;;;;;;;2.00;2.00;;;;;10.76;37.03;101498.28;4979536;28;45498;-73
2022/04/04 10:16:57;;;;;;;;;2.75;2.75;;;;;10.75;37.01;101484.03;4992074;28;45498;-73
2022/04/04 10:19:25;;;;;;;;;3.00;3.00;;;;;10.79;36.79;101467.97;4982724;28;45652;-73
2022/04/04 10:21:50;;;;;;;;;1.00;1.00;;;;;10.79;36.83;101473.31;4978344;28;47124;-73
2022/04/04 10:24:16;;;;;;;;;2.75;2.00;;;;;10.89;37.08;101472.19;4979034;28;45473;-74
2022/04/04 10:26:47;;;;;;;;;2.00;2.00;;;;;10.92;37.37;101466.78;4979225;28;45715;-73
2022/04/04 10:29:14;;;;;;;;;2.00;2.00;;;;;10.97;36.92;101464.88;4978431;28;45654;-73
2022/04/04 10:31:55;;;;;;;;;2.00;2.00;;;;;11.05;37.05;101473.59;4978713;28;46334;-73
2022/04/04 10:34:23;;;;;;;;;3.00;3.00;;;;;11.03;36.19;101453.19;4978917;28;45332;-73
2022/04/04 10:36:58;;;;;;;;;2.50;2.00;;;;;11.11;37.00;101465.47;4962375;28;45738;-72
2022/04/04 10:39:48;;;;;;;;;2.00;2.00;;;;;11.17;35.93;101448.38;4978820;28;45354;-72
2022/04/04 10:42:24;;;;;;;;;1.75;1.75;;;;;11.19;36.11;101451.03;4978836;28;46784;-72
2022/04/04 10:44:56;;;;;;;;;2.00;2.00;;;;;11.24;35.59;101455.38;4979392;28;45721;-72
2022/04/04 10:47:23;;;;;;;;;1.75;1.75;;;;;11.27;35.23;101441.91;4961133;28;45437;-71
2022/04/04 10:49:49;;;;;;;;;1.00;1.00;;;;;11.31;35.55;101434.72;4979201;28;45484;-71
2022/04/04 10:52:19;;;;;;;;;2.50;1.75;;;;;11.36;35.21;101430.13;4981968;28;46135;-71
2022/04/04 10:54:46;;;;;;;;;2.00;2.00;;;;;11.41;35.13;101430.00;4982137;28;45457;-72
2022/04/04 10:57:16;;;;;;;;;2.25;2.25;;;;;11.42;35.42;101429.97;4981484;28;45278;-71
2022/04/04 10:59:46;;;;;;;;;1.50;1.00;;;;;11.43;35.30;101418.38;4980252;28;45724;-72
2022/04/04 11:02:14;;;;;;;;;2.00;1.75;;;;;11.52;35.38;101427.06;4982579;28;45381;-72
2022/04/04 11:07:38;;;;;;;;;3.00;2.00;;;;;11.47;34.82;101408.47;4982062;28;45533;-72
2022/04/04 11:07:38;;;;;;;;;2.00;2.00;;;;;11.53;34.91;101407.41;4970819;28;45731;-72
2022/04/04 11:10:42;;;;;;;;;2.50;2.50;;;;;11.61;34.33;101409.00;4982391;28;45452;-72
2022/04/04 11:13:08;;;;;;;;;1.50;1.50;;;;;11.62;34.50;101407.19;4982554;28;46369;-72
2022/04/04 11:15:53;;;;;;;;;2.00;2.00;;;;;11.62;34.91;101394.69;4981217;28;45496;-72
2022/04/04 11:18:19;;;;;;;;;4.00;3.00;;;;;11.66;34.63;101404.41;4982558;28;45320;-72
2022/04/04 11:20:50;;;;;;;;;1.50;1.50;;;;;11.71;35.14;101396.28;4981975;28;45448;-73
2022/04/04 11:23:17;;;;;;;;;3.00;2.75;;;;;11.66;34.95;101375.00;4962860;28;47914;-72
2022/04/04 11:25:52;;;;;;;;;3.00;3.00;;;;;11.75;34.75;101387.22;4982200;28;45286;-72